AZU2955 SBKP-SBFI
Flight info
| Callsign | AZU2955 |
|---|---|
| Flight time | 1h 17m |
| Altitude | 38000 |
| Route | OSUD4A ASETA UZ152 UPORU ANBA1A |
| Aircraft | A20N/M-SDE2E3FGHIRWXY/LB1 |
Departure
| Time | 2026-04-30 13:42 |
|---|---|
| Airport | Viracopos International Airport (SBKP) |
Arrival
| Time | 2026-04-30 14:59 |
|---|---|
| Airport | Cataratas International Airport (SBFI) |
| Time | Latitude | Longitude | Altitude | Speed | Heading |
|---|---|---|---|---|---|
| 2026-04-30 13:25 | -23.00403 | -47.14858 | 2149 ft | 0 kts | 218° |
| 2026-04-30 13:33 | -23.00385 | -47.14838 | 2149 ft | 2 kts | 242° |
| 2026-04-30 13:34 | -23.00380 | -47.14821 | 2149 ft | 2 kts | 274° |
| 2026-04-30 13:34 | -23.00391 | -47.14792 | 2153 ft | 0 kts | 307° |
| 2026-04-30 13:37 | -23.00387 | -47.14798 | 2153 ft | 2 kts | 307° |
| 2026-04-30 13:37 | -23.00342 | -47.14862 | 2153 ft | 8 kts | 308° |
| 2026-04-30 13:38 | -23.00253 | -47.14985 | 2153 ft | 13 kts | 308° |
| 2026-04-30 13:38 | -23.00187 | -47.15004 | 2157 ft | 10 kts | 32° |
| 2026-04-30 13:38 | -23.00052 | -47.14895 | 2154 ft | 14 kts | 38° |
| 2026-04-30 13:39 | -22.99934 | -47.14768 | 2153 ft | 0 kts | 41° |
| 2026-04-30 13:40 | -22.99929 | -47.14764 | 2152 ft | 3 kts | 41° |
| 2026-04-30 13:40 | -22.99906 | -47.14733 | 2149 ft | 7 kts | 59° |
| 2026-04-30 13:40 | -22.99887 | -47.14670 | 2152 ft | 10 kts | 81° |
| 2026-04-30 13:40 | -22.99918 | -47.14601 | 2155 ft | 11 kts | 125° |
| 2026-04-30 13:41 | -22.99988 | -47.14500 | 2154 ft | 35 kts | 127° |
| 2026-04-30 13:41 | -23.00289 | -47.14080 | 2156 ft | 104 kts | 128° |
| 2026-04-30 13:41 | -23.00851 | -47.13294 | 2152 ft | 157 kts | 127° |
| 2026-04-30 13:41 | -23.01549 | -47.12324 | 2627 ft | 164 kts | 128° |
| 2026-04-30 13:42 | -23.02270 | -47.11349 | 3143 ft | 167 kts | 128° |
| 2026-04-30 13:42 | -23.02998 | -47.10377 | 3617 ft | 169 kts | 128° |
| 2026-04-30 13:42 | -23.04539 | -47.08253 | 4307 ft | 198 kts | 127° |
| 2026-04-30 13:43 | -23.05656 | -47.07250 | 4674 ft | 222 kts | 157° |
| 2026-04-30 13:43 | -23.07263 | -47.07023 | 5077 ft | 247 kts | 191° |
| 2026-04-30 13:43 | -23.08881 | -47.07780 | 5583 ft | 266 kts | 220° |
| 2026-04-30 13:43 | -23.10027 | -47.09392 | 6225 ft | 275 kts | 248° |
| 2026-04-30 13:44 | -23.10588 | -47.11346 | 7100 ft | 275 kts | 257° |
| 2026-04-30 13:44 | -23.10927 | -47.13400 | 7969 ft | 277 kts | 264° |
| 2026-04-30 13:44 | -23.11014 | -47.15504 | 8814 ft | 280 kts | 271° |
| 2026-04-30 13:44 | -23.10957 | -47.17625 | 9676 ft | 283 kts | 270° |
| 2026-04-30 13:45 | -23.11013 | -47.22028 | 10780 ft | 309 kts | 268° |
| 2026-04-30 13:45 | -23.11081 | -47.24456 | 11005 ft | 332 kts | 268° |
| 2026-04-30 13:45 | -23.11154 | -47.26995 | 11572 ft | 339 kts | 268° |
| 2026-04-30 13:46 | -23.11223 | -47.29544 | 12277 ft | 343 kts | 268° |
| 2026-04-30 13:46 | -23.11292 | -47.32151 | 12969 ft | 347 kts | 268° |
| 2026-04-30 13:46 | -23.11359 | -47.34790 | 13648 ft | 351 kts | 268° |
| 2026-04-30 13:46 | -23.11427 | -47.37466 | 14274 ft | 355 kts | 268° |
| 2026-04-30 13:47 | -23.11496 | -47.40165 | 14894 ft | 357 kts | 268° |
| 2026-04-30 13:47 | -23.11566 | -47.42876 | 15499 ft | 359 kts | 268° |
| 2026-04-30 13:47 | -23.11633 | -47.45563 | 16105 ft | 362 kts | 268° |
| 2026-04-30 13:47 | -23.11699 | -47.48304 | 16693 ft | 364 kts | 268° |
| 2026-04-30 13:48 | -23.11766 | -47.51071 | 17283 ft | 367 kts | 269° |
| 2026-04-30 13:48 | -23.11834 | -47.53852 | 17856 ft | 369 kts | 269° |
| 2026-04-30 13:48 | -23.11901 | -47.56663 | 18415 ft | 372 kts | 269° |
| 2026-04-30 13:48 | -23.11969 | -47.59475 | 18916 ft | 373 kts | 269° |
| 2026-04-30 13:49 | -23.12013 | -47.61355 | 19227 ft | 376 kts | 269° |
| 2026-04-30 13:49 | -23.12102 | -47.65116 | 19921 ft | 377 kts | 269° |
| 2026-04-30 13:49 | -23.12170 | -47.67975 | 20428 ft | 379 kts | 269° |
| 2026-04-30 13:49 | -23.12237 | -47.70852 | 20930 ft | 380 kts | 269° |
| 2026-04-30 13:50 | -23.12303 | -47.73722 | 21435 ft | 382 kts | 269° |
| 2026-04-30 13:50 | -23.12433 | -47.79500 | 22398 ft | 386 kts | 269° |
| 2026-04-30 13:50 | -23.12590 | -47.82428 | 22895 ft | 389 kts | 262° |
| 2026-04-30 13:51 | -23.12969 | -47.84377 | 23207 ft | 391 kts | 255° |
| 2026-04-30 13:51 | -23.13960 | -47.87105 | 23678 ft | 396 kts | 245° |
| 2026-04-30 13:51 | -23.15451 | -47.89641 | 24068 ft | 400 kts | 237° |
| 2026-04-30 13:51 | -23.17088 | -47.92101 | 24472 ft | 402 kts | 237° |
| 2026-04-30 13:52 | -23.18722 | -47.94572 | 24868 ft | 403 kts | 237° |
| 2026-04-30 13:52 | -23.20361 | -47.97060 | 25249 ft | 405 kts | 237° |
| 2026-04-30 13:52 | -23.22005 | -47.99560 | 25640 ft | 407 kts | 238° |
| 2026-04-30 13:52 | -23.23655 | -48.02070 | 26025 ft | 408 kts | 238° |
| 2026-04-30 13:53 | -23.25315 | -48.04598 | 26382 ft | 411 kts | 238° |
| 2026-04-30 13:53 | -23.26900 | -48.07177 | 26752 ft | 410 kts | 243° |
| 2026-04-30 13:53 | -23.28128 | -48.09922 | 27098 ft | 408 kts | 251° |
| 2026-04-30 13:53 | -23.28997 | -48.12857 | 27459 ft | 407 kts | 258° |
| 2026-04-30 13:54 | -23.29507 | -48.15894 | 27813 ft | 408 kts | 263° |
| 2026-04-30 13:54 | -23.29946 | -48.18948 | 28141 ft | 409 kts | 262° |
| 2026-04-30 13:54 | -23.30396 | -48.22012 | 28473 ft | 411 kts | 262° |
| 2026-04-30 13:54 | -23.30850 | -48.25088 | 28807 ft | 412 kts | 263° |
| 2026-04-30 13:55 | -23.31305 | -48.28176 | 29139 ft | 414 kts | 263° |
| 2026-04-30 13:55 | -23.31761 | -48.31281 | 29454 ft | 415 kts | 263° |
| 2026-04-30 13:55 | -23.32215 | -48.34386 | 29765 ft | 417 kts | 263° |
| 2026-04-30 13:55 | -23.32664 | -48.37468 | 30070 ft | 418 kts | 263° |
| 2026-04-30 13:56 | -23.33225 | -48.40590 | 30352 ft | 421 kts | 258° |
| 2026-04-30 13:56 | -23.34082 | -48.43658 | 30614 ft | 425 kts | 252° |
| 2026-04-30 13:56 | -23.35184 | -48.46657 | 30884 ft | 427 kts | 251° |
| 2026-04-30 13:56 | -23.36307 | -48.49662 | 31172 ft | 428 kts | 251° |
| 2026-04-30 13:57 | -23.37423 | -48.52671 | 31509 ft | 428 kts | 251° |
| 2026-04-30 13:57 | -23.38520 | -48.55635 | 31883 ft | 427 kts | 251° |
| 2026-04-30 13:57 | -23.39628 | -48.58630 | 32258 ft | 426 kts | 250° |
| 2026-04-30 13:57 | -23.40732 | -48.61617 | 32620 ft | 424 kts | 250° |
| 2026-04-30 13:58 | -23.41833 | -48.64595 | 32984 ft | 423 kts | 250° |
| 2026-04-30 13:58 | -23.44020 | -48.70517 | 33701 ft | 420 kts | 250° |
| 2026-04-30 13:58 | -23.45110 | -48.73473 | 34032 ft | 419 kts | 250° |
| 2026-04-30 13:59 | -23.46195 | -48.76415 | 34313 ft | 418 kts | 250° |
| 2026-04-30 13:59 | -23.47264 | -48.79317 | 34600 ft | 416 kts | 250° |
| 2026-04-30 13:59 | -23.48344 | -48.82250 | 34872 ft | 415 kts | 250° |
| 2026-04-30 13:59 | -23.49415 | -48.85159 | 35151 ft | 413 kts | 250° |
| 2026-04-30 14:00 | -23.50485 | -48.88069 | 35423 ft | 412 kts | 250° |
| 2026-04-30 14:00 | -23.52607 | -48.93843 | 35951 ft | 409 kts | 251° |
| 2026-04-30 14:00 | -23.53665 | -48.96726 | 36197 ft | 408 kts | 251° |
| 2026-04-30 14:01 | -23.54717 | -48.99592 | 36445 ft | 407 kts | 251° |
| 2026-04-30 14:01 | -23.55754 | -49.02421 | 36671 ft | 406 kts | 251° |
| 2026-04-30 14:01 | -23.56800 | -49.05277 | 36895 ft | 405 kts | 251° |
| 2026-04-30 14:01 | -23.57847 | -49.08137 | 37132 ft | 404 kts | 251° |
| 2026-04-30 14:02 | -23.58888 | -49.10981 | 37391 ft | 402 kts | 251° |
| 2026-04-30 14:02 | -23.59908 | -49.13771 | 37608 ft | 401 kts | 251° |
| 2026-04-30 14:02 | -23.60940 | -49.16594 | 37804 ft | 400 kts | 251° |
| 2026-04-30 14:02 | -23.61971 | -49.19417 | 37980 ft | 399 kts | 251° |
| 2026-04-30 14:03 | -23.62985 | -49.22199 | 38110 ft | 399 kts | 251° |
| 2026-04-30 14:03 | -23.64010 | -49.25010 | 38108 ft | 397 kts | 251° |
| 2026-04-30 14:03 | -23.66050 | -49.30612 | 38111 ft | 397 kts | 251° |
| 2026-04-30 14:04 | -23.68084 | -49.36205 | 38110 ft | 396 kts | 251° |
| 2026-04-30 14:04 | -23.70119 | -49.41806 | 38108 ft | 396 kts | 251° |
| 2026-04-30 14:05 | -23.72137 | -49.47370 | 38110 ft | 397 kts | 251° |
| 2026-04-30 14:05 | -23.74166 | -49.52969 | 38121 ft | 397 kts | 251° |
| 2026-04-30 14:06 | -23.77191 | -49.61350 | 38107 ft | 395 kts | 251° |
| 2026-04-30 14:07 | -23.80201 | -49.69713 | 38108 ft | 395 kts | 251° |
| 2026-04-30 14:08 | -23.83216 | -49.78098 | 38106 ft | 394 kts | 251° |
| 2026-04-30 14:08 | -23.86206 | -49.86434 | 38105 ft | 393 kts | 252° |
| 2026-04-30 14:09 | -23.88193 | -49.91986 | 38107 ft | 394 kts | 252° |
| 2026-04-30 14:10 | -23.91187 | -50.00361 | 38108 ft | 392 kts | 252° |
| 2026-04-30 14:10 | -23.93160 | -50.05899 | 38108 ft | 393 kts | 252° |
| 2026-04-30 14:11 | -23.95145 | -50.11474 | 38105 ft | 393 kts | 252° |
| 2026-04-30 14:11 | -23.97127 | -50.17049 | 38105 ft | 393 kts | 252° |
| 2026-04-30 14:12 | -23.99093 | -50.22584 | 38108 ft | 391 kts | 252° |
| 2026-04-30 14:12 | -24.01064 | -50.28143 | 38108 ft | 391 kts | 252° |
| 2026-04-30 14:13 | -24.03018 | -50.33667 | 38110 ft | 391 kts | 252° |
| 2026-04-30 14:13 | -24.04987 | -50.39242 | 38107 ft | 392 kts | 252° |
| 2026-04-30 14:14 | -24.06949 | -50.44799 | 38107 ft | 391 kts | 252° |
| 2026-04-30 14:14 | -24.08891 | -50.50312 | 38096 ft | 388 kts | 252° |
| 2026-04-30 14:15 | -24.10824 | -50.55814 | 38092 ft | 386 kts | 252° |
| 2026-04-30 14:15 | -24.12764 | -50.61346 | 38103 ft | 391 kts | 252° |
| 2026-04-30 14:16 | -24.14713 | -50.66901 | 38103 ft | 389 kts | 252° |
| 2026-04-30 14:16 | -24.16644 | -50.72415 | 38106 ft | 390 kts | 252° |
| 2026-04-30 14:17 | -24.18582 | -50.77961 | 38102 ft | 389 kts | 252° |
| 2026-04-30 14:17 | -24.20518 | -50.83504 | 38104 ft | 389 kts | 252° |
| 2026-04-30 14:18 | -24.22455 | -50.89060 | 38115 ft | 390 kts | 252° |
| 2026-04-30 14:18 | -24.25357 | -50.97398 | 38116 ft | 390 kts | 252° |
| 2026-04-30 14:19 | -24.28231 | -51.05668 | 38101 ft | 385 kts | 253° |
| 2026-04-30 14:20 | -24.30134 | -51.11166 | 38100 ft | 386 kts | 253° |
| 2026-04-30 14:20 | -24.32989 | -51.19432 | 38104 ft | 386 kts | 253° |
| 2026-04-30 14:21 | -24.34872 | -51.24899 | 38096 ft | 385 kts | 253° |
| 2026-04-30 14:22 | -24.37720 | -51.33169 | 38100 ft | 386 kts | 253° |
| 2026-04-30 14:22 | -24.40551 | -51.41408 | 38103 ft | 385 kts | 253° |
| 2026-04-30 14:23 | -24.44328 | -51.52427 | 38105 ft | 386 kts | 253° |
| 2026-04-30 14:24 | -24.47146 | -51.60665 | 38112 ft | 385 kts | 253° |
| 2026-04-30 14:25 | -24.50915 | -51.71714 | 38111 ft | 386 kts | 253° |
| 2026-04-30 14:26 | -24.53735 | -51.80001 | 38117 ft | 386 kts | 253° |
| 2026-04-30 14:27 | -24.56545 | -51.88271 | 38117 ft | 386 kts | 253° |
| 2026-04-30 14:27 | -24.58419 | -51.93809 | 38116 ft | 386 kts | 253° |
| 2026-04-30 14:28 | -24.61219 | -52.02102 | 38103 ft | 385 kts | 253° |
| 2026-04-30 14:28 | -24.63078 | -52.07621 | 38104 ft | 385 kts | 253° |
| 2026-04-30 14:29 | -24.66480 | -52.17730 | 38100 ft | 385 kts | 254° |
| 2026-04-30 14:31 | -24.71415 | -52.32445 | 38102 ft | 386 kts | 254° |
| 2026-04-30 14:31 | -24.74199 | -52.40767 | 38091 ft | 385 kts | 254° |
| 2026-04-30 14:32 | -24.76960 | -52.49043 | 38087 ft | 385 kts | 254° |
| 2026-04-30 14:33 | -24.78803 | -52.54575 | 38092 ft | 385 kts | 254° |
| 2026-04-30 14:33 | -24.81567 | -52.62887 | 38083 ft | 384 kts | 254° |
| 2026-04-30 14:34 | -24.83406 | -52.68428 | 38096 ft | 385 kts | 254° |
| 2026-04-30 14:34 | -24.85230 | -52.73939 | 38101 ft | 385 kts | 254° |
| 2026-04-30 14:35 | -24.87974 | -52.82251 | 38088 ft | 385 kts | 255° |
| 2026-04-30 14:36 | -24.89800 | -52.87792 | 38095 ft | 385 kts | 254° |
| 2026-04-30 14:36 | -24.91319 | -52.92406 | 38091 ft | 385 kts | 254° |
| 2026-04-30 14:36 | -24.92528 | -52.96083 | 37935 ft | 384 kts | 254° |
| 2026-04-30 14:37 | -24.93141 | -52.97949 | 37564 ft | 385 kts | 254° |
| 2026-04-30 14:37 | -24.94060 | -53.00756 | 36585 ft | 394 kts | 254° |
| 2026-04-30 14:37 | -24.94990 | -53.03602 | 35436 ft | 406 kts | 254° |
| 2026-04-30 14:37 | -24.95962 | -53.06575 | 34442 ft | 414 kts | 253° |
| 2026-04-30 14:38 | -24.96944 | -53.09568 | 33571 ft | 417 kts | 253° |
| 2026-04-30 14:38 | -24.97931 | -53.12576 | 32810 ft | 416 kts | 253° |
| 2026-04-30 14:38 | -24.98919 | -53.15589 | 31923 ft | 419 kts | 253° |
| 2026-04-30 14:38 | -24.99906 | -53.18608 | 31233 ft | 418 kts | 253° |
| 2026-04-30 14:39 | -25.00879 | -53.21582 | 30644 ft | 414 kts | 253° |
| 2026-04-30 14:39 | -25.01855 | -53.24568 | 29991 ft | 412 kts | 253° |
| 2026-04-30 14:39 | -25.02818 | -53.27521 | 29416 ft | 407 kts | 253° |
| 2026-04-30 14:40 | -25.04704 | -53.33315 | 28242 ft | 400 kts | 253° |
| 2026-04-30 14:40 | -25.05644 | -53.36206 | 27658 ft | 397 kts | 253° |
| 2026-04-30 14:40 | -25.06579 | -53.39085 | 27064 ft | 394 kts | 253° |
| 2026-04-30 14:40 | -25.07501 | -53.41925 | 26482 ft | 392 kts | 253° |
| 2026-04-30 14:41 | -25.08418 | -53.44752 | 25918 ft | 392 kts | 253° |
| 2026-04-30 14:41 | -25.09321 | -53.47539 | 25386 ft | 390 kts | 253° |
| 2026-04-30 14:41 | -25.10233 | -53.50356 | 24767 ft | 390 kts | 253° |
| 2026-04-30 14:41 | -25.11144 | -53.53172 | 24202 ft | 389 kts | 252° |
| 2026-04-30 14:42 | -25.12057 | -53.55995 | 23584 ft | 390 kts | 252° |
| 2026-04-30 14:42 | -25.12973 | -53.58830 | 22967 ft | 388 kts | 252° |
| 2026-04-30 14:42 | -25.13876 | -53.61622 | 22386 ft | 385 kts | 252° |
| 2026-04-30 14:42 | -25.14776 | -53.64411 | 21795 ft | 384 kts | 252° |
| 2026-04-30 14:43 | -25.15661 | -53.67156 | 21210 ft | 382 kts | 252° |
| 2026-04-30 14:43 | -25.16549 | -53.69918 | 20621 ft | 382 kts | 252° |
| 2026-04-30 14:43 | -25.17437 | -53.72692 | 20024 ft | 381 kts | 251° |
| 2026-04-30 14:43 | -25.18323 | -53.75459 | 19429 ft | 381 kts | 251° |
| 2026-04-30 14:44 | -25.19207 | -53.78224 | 18821 ft | 381 kts | 251° |
| 2026-04-30 14:44 | -25.20081 | -53.80955 | 18190 ft | 382 kts | 251° |
| 2026-04-30 14:44 | -25.20963 | -53.83711 | 17628 ft | 379 kts | 251° |
| 2026-04-30 14:44 | -25.21842 | -53.86461 | 17034 ft | 377 kts | 251° |
| 2026-04-30 14:45 | -25.22641 | -53.89209 | 16465 ft | 375 kts | 256° |
| 2026-04-30 14:45 | -25.23273 | -53.91999 | 15887 ft | 373 kts | 256° |
| 2026-04-30 14:45 | -25.23906 | -53.94769 | 15326 ft | 371 kts | 256° |
| 2026-04-30 14:45 | -25.24542 | -53.97541 | 14739 ft | 370 kts | 256° |
| 2026-04-30 14:46 | -25.25173 | -54.00287 | 14157 ft | 369 kts | 255° |
| 2026-04-30 14:46 | -25.25796 | -54.02998 | 13563 ft | 368 kts | 255° |
| 2026-04-30 14:46 | -25.26422 | -54.05727 | 13047 ft | 363 kts | 256° |
| 2026-04-30 14:46 | -25.27042 | -54.08427 | 12516 ft | 360 kts | 256° |
| 2026-04-30 14:47 | -25.27653 | -54.11097 | 11974 ft | 357 kts | 256° |
| 2026-04-30 14:47 | -25.28261 | -54.13756 | 11443 ft | 355 kts | 256° |
| 2026-04-30 14:47 | -25.28858 | -54.16365 | 10888 ft | 354 kts | 256° |
| 2026-04-30 14:47 | -25.29458 | -54.18991 | 10502 ft | 348 kts | 257° |
| 2026-04-30 14:48 | -25.30040 | -54.21537 | 10364 ft | 333 kts | 257° |
| 2026-04-30 14:48 | -25.30596 | -54.23970 | 10246 ft | 320 kts | 257° |
| 2026-04-30 14:48 | -25.31130 | -54.26312 | 10090 ft | 308 kts | 257° |
| 2026-04-30 14:48 | -25.31643 | -54.28563 | 9767 ft | 304 kts | 257° |
| 2026-04-30 14:49 | -25.32155 | -54.30817 | 9378 ft | 300 kts | 257° |
| 2026-04-30 14:49 | -25.32660 | -54.33043 | 9001 ft | 297 kts | 257° |
| 2026-04-30 14:49 | -25.33158 | -54.35245 | 8615 ft | 293 kts | 257° |
| 2026-04-30 14:49 | -25.33651 | -54.37420 | 8094 ft | 288 kts | 257° |
| 2026-04-30 14:50 | -25.34610 | -54.41654 | 7302 ft | 283 kts | 257° |
| 2026-04-30 14:50 | -25.35086 | -54.43761 | 6921 ft | 281 kts | 257° |
| 2026-04-30 14:51 | -25.36031 | -54.47945 | 6156 ft | 278 kts | 257° |
| 2026-04-30 14:51 | -25.36499 | -54.50016 | 5831 ft | 274 kts | 257° |
| 2026-04-30 14:51 | -25.37362 | -54.53835 | 5543 ft | 241 kts | 257° |
| 2026-04-30 14:52 | -25.37761 | -54.55602 | 5238 ft | 234 kts | 257° |
| 2026-04-30 14:52 | -25.38567 | -54.58873 | 4790 ft | 212 kts | 242° |
| 2026-04-30 14:52 | -25.39553 | -54.59978 | 4626 ft | 198 kts | 208° |
| 2026-04-30 14:53 | -25.41928 | -54.60985 | 4320 ft | 172 kts | 201° |
| 2026-04-30 14:53 | -25.43036 | -54.61449 | 4062 ft | 168 kts | 201° |
| 2026-04-30 14:54 | -25.45220 | -54.62364 | 3448 ft | 167 kts | 200° |
| 2026-04-30 14:54 | -25.47381 | -54.63039 | 3004 ft | 158 kts | 174° |
| 2026-04-30 14:55 | -25.49285 | -54.61965 | 2946 ft | 157 kts | 127° |
| 2026-04-30 14:55 | -25.49981 | -54.61065 | 2830 ft | 151 kts | 130° |
| 2026-04-30 14:55 | -25.51395 | -54.59261 | 2696 ft | 156 kts | 129° |
| 2026-04-30 14:56 | -25.52785 | -54.57477 | 2424 ft | 144 kts | 129° |
| 2026-04-30 14:56 | -25.54057 | -54.55843 | 2066 ft | 137 kts | 128° |
| 2026-04-30 14:57 | -25.54685 | -54.55033 | 1885 ft | 141 kts | 128° |
| 2026-04-30 14:57 | -25.55943 | -54.53417 | 1526 ft | 136 kts | 128° |
| 2026-04-30 14:58 | -25.57154 | -54.51853 | 1208 ft | 129 kts | 129° |
| 2026-04-30 14:58 | -25.57730 | -54.51099 | 1014 ft | 127 kts | 131° |
| 2026-04-30 14:58 | -25.58907 | -54.49601 | 807 ft | 125 kts | 130° |
| 2026-04-30 14:59 | -25.59509 | -54.48822 | 799 ft | 25 kts | 130° |
| 2026-04-30 15:00 | -25.59678 | -54.48698 | 798 ft | 12 kts | 226° |
| 2026-04-30 15:00 | -25.59756 | -54.48769 | 798 ft | 1 kts | 221° |